Time;durP1;ratioP1;P1;durP2;ratioP2;P2;SDS_P1;SDS_P2;PMS_P1;PMS_P2;Temp;Humidity;BMP_temperature;BMP_pressure;BME280_temperature;BME280_humidity;BME280_pressure;Samples;Min_cycle;Max_cycle;Signal;HPM_P1;HPM_P2
2022/01/05 00:01:13;;;;;;;;;;;;;;;1.69;90.57;97966.03;4992721;28;20502;-86
2022/01/05 00:03:38;;;;;;;;;;;;;;;1.62;90.44;97976.69;4992588;28;20004;-86
2022/01/05 00:06:03;;;;;;;;;;;;;;;1.67;90.71;97973.94;4991344;28;19922;-85
2022/01/05 00:08:29;;;;;;;;;;;;;;;1.72;90.54;97965.94;4989902;28;19921;-90
2022/01/05 00:10:54;;;;;;;;;;;;;;;1.67;90.44;97963.50;4990466;28;19922;-88
2022/01/05 00:13:20;;;;;;;;;;;;;;;1.61;90.41;97966.31;4989407;28;20016;-90
2022/01/05 00:15:45;;;;;;;;;;;;;;;1.65;90.84;97951.41;4991319;28;19926;-89
2022/01/05 00:18:11;;;;;;;;;;;;;;;1.64;90.16;97963.59;4990402;28;19918;-87
2022/01/05 00:20:36;;;;;;;;;;;;;;;1.62;90.34;97958.44;4990395;28;19918;-91
2022/01/05 00:23:01;;;;;;;;;;;;;;;1.58;90.42;97945.53;4991427;28;19940;-89
2022/01/05 00:25:26;;;;;;;;;;;;;;;1.60;90.32;97946.34;4991235;28;19918;-90
2022/01/05 00:27:52;;;;;;;;;;;;;;;1.57;90.28;97941.25;4991722;28;19929;-90
2022/01/05 00:30:17;;;;;;;;;;;;;;;1.61;90.25;97943.69;4991258;28;20016;-90
2022/01/05 00:32:42;;;;;;;;;;;;;;;1.64;90.12;97947.94;4991423;28;19973;-91
2022/01/05 00:35:08;;;;;;;;;;;;;;;1.65;89.97;97948.81;4990939;28;20341;-85
2022/01/05 00:37:33;;;;;;;;;;;;;;;1.65;90.06;97946.19;4992342;28;19928;-89
2022/01/05 00:39:59;;;;;;;;;;;;;;;1.52;89.93;97944.00;4991123;28;20001;-86
2022/01/05 00:42:24;;;;;;;;;;;;;;;1.62;89.76;97949.75;4991943;28;20364;-86
2022/01/05 00:44:49;;;;;;;;;;;;;;;1.66;89.86;97953.09;4991519;28;19953;-87
2022/01/05 00:47:16;;;;;;;;;;;;;;;1.63;89.78;97949.69;4990956;28;19937;-88
2022/01/05 00:49:41;;;;;;;;;;;;;;;1.66;89.78;97945.25;4990724;28;20388;-88
2022/01/05 00:52:06;;;;;;;;;;;;;;;1.79;91.34;97957.84;4991186;28;19922;-89
2022/01/05 00:54:32;;;;;;;;;;;;;;;1.89;94.00;97979.25;4992672;28;20444;-89
2022/01/05 00:56:57;;;;;;;;;;;;;;;2.58;98.67;97998.47;4991163;28;20053;-91
2022/01/05 00:59:23;;;;;;;;;;;;;;;3.15;100.00;97985.72;4990048;28;19932;-89
2022/01/05 01:01:48;;;;;;;;;;;;;;;3.44;100.00;97969.63;4991151;28;19921;-90
2022/01/05 01:04:13;;;;;;;;;;;;;;;3.62;100.00;97959.28;4994057;28;20006;-91
2022/01/05 03:22:58;;;;;;;;;;;;;;;6.65;100.00;98348.72;5022481;28;20300;-85
2022/01/05 03:25:23;;;;;;;;;;;;;;;6.66;100.00;98358.31;5022311;28;20020;-87
2022/01/05 03:27:50;;;;;;;;;;;;;;;6.70;100.00;98359.00;5020421;28;20431;-85
2022/01/05 03:30:23;;;;;;;;;;;;;;;6.72;100.00;98352.75;5022227;28;20061;-85
2022/01/05 03:35:27;;;;;;;;;;;;;;;6.82;100.00;98389.16;5021497;28;20008;-88
2022/01/05 03:37:57;;;;;;;;;;;;;;;6.85;100.00;98396.91;5020613;28;19922;-90
2022/01/05 03:40:26;;;;;;;;;;;;;;;6.86;100.00;98393.31;5021341;28;19917;-90
2022/01/05 03:42:51;;;;;;;;;;;;;;;6.89;100.00;98409.84;5020737;28;19922;-92
2022/01/05 03:45:17;;;;;;;;;;;;;;;6.93;100.00;98414.97;5020850;28;19921;-94
2022/01/05 03:47:42;;;;;;;;;;;;;;;7.01;100.00;98425.94;5022685;28;19925;-90
2022/01/05 03:50:08;;;;;;;;;;;;;;;7.05;100.00;98435.38;5021443;28;19925;-91
2022/01/05 03:52:33;;;;;;;;;;;;;;;7.06;100.00;98448.47;5038112;28;19995;-90
2022/01/05 03:55:01;;;;;;;;;;;;;;;7.06;100.00;98453.75;5022765;28;20000;-92
2022/01/05 03:57:29;;;;;;;;;;;;;;;6.02;100.00;98453.47;5021409;28;19917;-92
2022/01/05 03:59:59;;;;;;;;;;;;;;;4.67;100.00;98463.50;5020461;28;19920;-92
2022/01/05 04:02:24;;;;;;;;;;;;;;;4.05;100.00;98465.88;5023114;28;19918;-90
2022/01/05 04:04:52;;;;;;;;;;;;;;;3.61;100.00;98468.34;5020922;28;19967;-93
2022/01/05 04:07:35;;;;;;;;;;;;;;;3.47;100.00;98481.94;5021102;28;19913;-87
2022/01/05 04:10:01;;;;;;;;;;;;;;;3.25;100.00;98493.13;5021304;28;19917;-88
2022/01/05 04:12:28;;;;;;;;;;;;;;;3.12;100.00;98491.00;5022110;28;20265;-93
2022/01/05 04:14:56;;;;;;;;;;;;;;;2.98;100.00;98502.75;5021109;28;19921;-93
2022/01/05 04:17:24;;;;;;;;;;;;;;;2.81;100.00;98494.59;5021368;28;19917;-87
2022/01/05 04:19:57;;;;;;;;;;;;;;;2.72;100.00;98500.97;5019375;28;19928;-87
2022/01/05 04:22:22;;;;;;;;;;;;;;;2.59;100.00;98510.97;5020032;28;19921;-91
2022/01/05 04:24:47;;;;;;;;;;;;;;;2.54;100.00;98518.09;5022169;28;19917;-89
2022/01/05 04:27:15;;;;;;;;;;;;;;;2.50;100.00;98519.09;5020899;28;20140;-89
2022/01/05 04:29:40;;;;;;;;;;;;;;;2.44;100.00;98524.50;5021293;28;19925;-87
2022/01/05 08:27:07;;;;;;;;;;;;;;;3.44;81.20;98915.00;4977659;23;20380;-89
2022/01/05 08:29:32;;;;;;;;;;;;;;;3.50;80.90;98910.53;4998057;28;19926;-89
2022/01/05 08:32:09;;;;;;;;;;;;;;;3.54;80.84;98933.09;4986073;28;19922;-88
2022/01/05 08:34:35;;;;;;;;;;;;;;;3.56;80.69;98931.31;4999851;28;20380;-89
2022/01/05 08:37:02;;;;;;;;;;;;;;;3.56;80.69;98936.56;4990909;28;19914;-89
2022/01/05 08:39:29;;;;;;;;;;;;;;;3.64;80.37;98937.19;4999565;28;19917;-92
2022/01/05 08:42:02;;;;;;;;;;;;;;;3.60;80.42;98939.03;4999672;28;19968;-88
2022/01/05 08:44:30;;;;;;;;;;;;;;;3.62;80.26;98944.22;4998523;28;19918;-88
2022/01/05 08:47:06;;;;;;;;;;;;;;;3.66;80.19;98945.00;4999902;28;19914;-88
2022/01/05 08:49:34;;;;;;;;;;;;;;;3.71;80.17;98949.22;4999814;28;19929;-89
2022/01/05 08:52:00;;;;;;;;;;;;;;;3.76;80.28;98949.06;4990416;28;19941;-90
2022/01/05 08:54:33;;;;;;;;;;;;;;;3.75;80.24;98955.22;4998802;28;20372;-87
2022/01/05 08:56:58;;;;;;;;;;;;;;;3.75;80.01;98948.22;5005231;28;19924;-91
2022/01/05 08:59:23;;;;;;;;;;;;;;;3.79;79.95;98962.94;4997925;28;20012;-88
2022/01/05 09:01:51;;;;;;;;;;;;;;;3.81;79.89;98963.78;4990643;28;19917;-87
2022/01/05 09:04:17;;;;;;;;;;;;;;;3.85;79.54;98964.53;4991799;28;19924;-88
2022/01/05 09:06:42;;;;;;;;;;;;;;;3.89;79.42;98963.53;4990364;28;19926;-89
2022/01/05 09:09:11;;;;;;;;;;;;;;;3.91;79.26;98971.34;4997771;28;20353;-88
2022/01/05 09:11:37;;;;;;;;;;;;;;;3.97;79.11;98971.19;4989156;28;19918;-88
2022/01/05 09:14:05;;;;;;;;;;;;;;;4.01;78.78;98980.69;4991756;28;19921;-89
2022/01/05 09:16:30;;;;;;;;;;;;;;;4.00;78.75;98979.84;4990989;28;19953;-88
2022/01/05 09:18:55;;;;;;;;;;;;;;;3.99;78.64;98980.72;4991503;28;19961;-89
2022/01/05 09:21:20;;;;;;;;;;;;;;;4.09;78.14;98986.56;4991647;28;20004;-88
2022/01/05 09:23:46;;;;;;;;;;;;;;;4.13;77.54;98995.19;4991742;28;20359;-90
2022/01/05 09:26:11;;;;;;;;;;;;;;;4.14;77.70;98984.66;4998459;28;20914;-89
2022/01/05 09:28:42;;;;;;;;;;;;;;;4.12;77.82;98983.84;5001889;28;19925;-89
2022/01/05 09:31:09;;;;;;;;;;;;;;;4.17;77.73;98997.69;5000899;28;20285;-87
2022/01/05 09:33:37;;;;;;;;;;;;;;;4.21;77.43;99002.84;5001461;28;19957;-90
2022/01/05 09:36:10;;;;;;;;;;;;;;;4.21;77.70;99008.09;4992859;28;19918;-89
2022/01/05 09:44:01;;;;;;;;;;;;;;;4.29;77.48;99021.81;4995267;28;19972;-92
2022/01/05 09:46:26;;;;;;;;;;;;;;;4.31;77.70;99023.50;4994895;28;20000;-88
2022/01/05 09:49:00;;;;;;;;;;;;;;;4.33;77.39;99018.22;4993653;28;19928;-88
2022/01/05 09:51:31;;;;;;;;;;;;;;;4.35;77.37;99016.41;4993141;28;20321;-88
2022/01/05 09:53:57;;;;;;;;;;;;;;;4.35;77.42;99024.28;4994686;28;20399;-88
2022/01/05 09:56:22;;;;;;;;;;;;;;;4.38;77.34;99020.72;4999826;28;19929;-88
2022/01/05 09:58:50;;;;;;;;;;;;;;;4.39;77.60;99028.53;4994742;28;19922;-89
2022/01/05 10:01:15;;;;;;;;;;;;;;;4.37;77.57;99035.56;5001107;28;19953;-90
2022/01/05 10:03:43;;;;;;;;;;;;;;;4.38;77.49;99034.69;4994271;28;19953;-89
2022/01/05 10:06:11;;;;;;;;;;;;;;;4.41;77.49;99037.22;5001600;28;19926;-87
2022/01/05 10:08:37;;;;;;;;;;;;;;;4.41;77.45;99039.84;4993244;28;19925;-88
2022/01/05 10:11:02;;;;;;;;;;;;;;;4.43;77.49;99045.88;4999933;28;19922;-88
2022/01/05 10:13:29;;;;;;;;;;;;;;;4.41;77.57;99047.72;4992519;28;20012;-90
2022/01/05 10:15:55;;;;;;;;;;;;;;;4.51;77.50;99048.28;4999041;28;20389;-89
2022/01/05 10:18:22;;;;;;;;;;;;;;;4.48;77.68;99054.50;4999734;28;20008;-91
2022/01/05 10:20:54;;;;;;;;;;;;;;;4.52;77.79;99058.75;4994313;28;20407;-88
2022/01/05 10:23:45;;;;;;;;;;;;;;;4.53;78.03;99049.97;4994005;28;19918;-90
2022/01/05 10:26:30;;;;;;;;;;;;;;;4.55;77.58;99052.56;4990700;28;19922;-89
2022/01/05 10:28:57;;;;;;;;;;;;;;;4.58;77.33;99062.97;4992894;28;19918;-87
2022/01/05 10:31:27;;;;;;;;;;;;;;;4.57;77.51;99063.84;5008412;28;19922;-87
2022/01/05 10:34:03;;;;;;;;;;;;;;;;;;;;;
2022/01/05 10:36:42;;;;;;;;;;;;;;;4.59;77.78;99048.06;4992315;28;19928;-89
2022/01/05 10:39:10;;;;;;;;;;;;;;;4.64;77.69;99052.28;4992599;28;20017;-89
2022/01/05 10:41:37;;;;;;;;;;;;;;;4.63;77.59;99058.44;4992661;28;19964;-89
2022/01/05 10:44:35;;;;;;;;;;;;;;;4.62;77.51;99061.09;4999245;28;20296;-88
2022/01/05 10:47:00;;;;;;;;;;;;;;;4.66;77.63;99067.94;4972014;28;19918;-88
2022/01/05 10:49:28;;;;;;;;;;;;;;;4.68;77.52;99071.41;4993621;28;19922;-88
2022/01/05 10:51:54;;;;;;;;;;;;;;;4.69;77.34;99070.47;4992164;28;20017;-88
2022/01/05 10:54:25;;;;;;;;;;;;;;;4.71;77.83;99066.91;4999350;28;20008;-91
2022/01/05 10:56:51;;;;;;;;;;;;;;;4.75;77.84;99072.06;4999668;28;19922;-87
2022/01/05 10:59:35;;;;;;;;;;;;;;;4.73;77.80;99072.13;4998742;28;19918;-89
2022/01/05 11:02:27;;;;;;;;;;;;;;;4.77;77.66;99071.13;4992900;28;20285;-91
2022/01/05 11:04:58;;;;;;;;;;;;;;;4.81;77.73;99072.75;5001198;28;20524;-88
2022/01/05 11:07:28;;;;;;;;;;;;;;;4.79;77.66;99076.34;4993079;28;20361;-88
2022/01/05 11:09:54;;;;;;;;;;;;;;;4.82;77.92;99066.59;4998965;28;19922;-87
2022/01/05 11:12:20;;;;;;;;;;;;;;;4.83;77.78;99070.06;4999482;28;20395;-88
2022/01/05 11:14:47;;;;;;;;;;;;;;;4.83;77.86;99055.16;5000759;28;19918;-90
2022/01/05 11:17:18;;;;;;;;;;;;;;;4.88;77.92;99063.78;4999310;28;19922;-87
2022/01/05 11:19:45;;;;;;;;;;;;;;;4.93;77.75;99060.13;4991535;28;19922;-90
2022/01/05 11:22:14;;;;;;;;;;;;;;;4.90;77.80;99059.34;4991039;28;19925;-90
2022/01/05 11:24:46;;;;;;;;;;;;;;;4.95;77.73;99063.59;5005882;28;20316;-91
2022/01/05 11:27:15;;;;;;;;;;;;;;;4.95;77.51;99063.59;4991744;28;20369;-91
2022/01/05 11:29:43;;;;;;;;;;;;;;;5.01;76.77;99060.75;4991300;28;19921;-88
2022/01/05 11:32:12;;;;;;;;;;;;;;;5.02;76.89;99059.84;4991693;28;19940;-90
2022/01/05 11:34:38;;;;;;;;;;;;;;;5.02;77.38;99051.97;4991814;28;19944;-92
2022/01/05 11:37:07;;;;;;;;;;;;;;;5.04;77.11;99063.28;4991527;28;20372;-90
2022/01/05 11:39:39;;;;;;;;;;;;;;;5.08;77.44;99055.25;4992079;28;20596;-88
2022/01/05 11:42:10;;;;;;;;;;;;;;;5.08;77.37;99064.91;4999675;28;19928;-90
2022/01/05 11:44:49;;;;;;;;;;;;;;;5.09;77.44;99058.78;4991436;28;19918;-88
2022/01/05 11:47:18;;;;;;;;;;;;;;;5.19;77.01;99062.81;4990777;28;19922;-88
2022/01/05 11:49:44;;;;;;;;;;;;;;;5.18;76.86;99062.84;4997278;28;19993;-90
2022/01/05 11:52:14;;;;;;;;;;;;;;;5.17;76.93;99074.25;4991273;28;19922;-88
2022/01/05 11:54:59;;;;;;;;;;;;;;;5.18;77.22;99071.59;4990645;28;19917;-88
2022/01/05 11:57:25;;;;;;;;;;;;;;;5.24;77.18;99079.25;4995896;28;19976;-92
2022/01/05 11:59:50;;;;;;;;;;;;;;;5.29;76.87;99081.75;4991449;28;20284;-89
2022/01/05 12:02:18;;;;;;;;;;;;;;;5.30;77.24;99080.84;4999478;28;19925;-91
2022/01/05 12:05:09;;;;;;;;;;;;;;;5.28;77.31;99082.66;4999314;28;20399;-89
2022/01/05 12:07:40;;;;;;;;;;;;;;;5.30;77.49;99085.22;4987904;28;19965;-90
2022/01/05 12:10:16;;;;;;;;;;;;;;;5.34;77.92;99084.22;4989366;28;20365;-89
2022/01/05 12:12:54;;;;;;;;;;;;;;;5.33;77.79;99086.00;4999571;28;19922;-88
2022/01/05 12:15:38;;;;;;;;;;;;;;;5.36;77.82;99080.66;4999814;28;19918;-89
2022/01/05 12:18:06;;;;;;;;;;;;;;;5.37;77.81;99089.38;4990899;28;19965;-89
2022/01/05 12:20:35;;;;;;;;;;;;;;;5.40;77.91;99094.53;4990708;28;20301;-88
2022/01/05 12:23:20;;;;;;;;;;;;;;;5.42;77.63;99101.44;4998716;28;19921;-91
2022/01/05 12:26:01;;;;;;;;;;;;;;;5.43;77.81;99099.69;5005319;28;20034;-87
2022/01/05 12:28:30;;;;;;;;;;;;;;;5.42;77.84;99088.31;4997906;28;20571;-89
2022/01/05 12:30:57;;;;;;;;;;;;;;;5.45;77.90;99100.50;4999533;28;19922;-89
2022/01/05 12:33:23;;;;;;;;;;;;;;;5.48;77.99;99100.41;4992532;28;19937;-89
2022/01/05 12:35:56;;;;;;;;;;;;;;;5.50;78.18;99109.06;4990420;28;19921;-91
2022/01/05 12:38:37;;;;;;;;;;;;;;;5.52;78.06;99109.03;4990712;28;19983;-91
2022/01/05 12:41:22;;;;;;;;;;;;;;;5.54;78.04;99115.97;4990522;28;19925;-89
2022/01/05 12:43:48;;;;;;;;;;;;;;;5.58;78.19;99114.94;4990349;28;20016;-91
2022/01/05 12:46:32;;;;;;;;;;;;;;;5.56;78.12;99119.41;4997112;28;20013;-89
2022/01/05 12:48:58;;;;;;;;;;;;;;;5.59;78.00;99119.28;5006538;28;19945;-90
2022/01/05 12:51:31;;;;;;;;;;;;;;;5.68;78.14;99122.53;4990532;28;19922;-91
2022/01/05 12:54:06;;;;;;;;;;;;;;;5.80;78.48;99122.13;4990389;28;19928;-91
2022/01/05 12:56:51;;;;;;;;;;;;;;;5.92;79.27;99131.34;4996030;28;19929;-91
2022/01/05 12:59:25;;;;;;;;;;;;;;;5.95;79.83;99125.97;4998592;28;19918;-91
2022/01/05 13:01:53;;;;;;;;;;;;;;;5.99;80.20;99127.66;4994099;28;19921;-87
2022/01/05 13:04:26;;;;;;;;;;;;;;;6.00;80.79;99130.22;5004112;28;19968;-93
2022/01/05 13:06:57;;;;;;;;;;;;;;;6.00;81.52;99124.13;4994380;28;19918;-89
2022/01/05 13:09:42;;;;;;;;;;;;;;;5.95;82.07;99118.09;4994246;28;20450;-89
2022/01/05 13:12:09;;;;;;;;;;;;;;;5.84;82.50;99115.84;4982158;28;19922;-92
2022/01/05 13:14:35;;;;;;;;;;;;;;;5.77;82.49;99114.34;4994920;28;20261;-88
2022/01/05 13:17:01;;;;;;;;;;;;;;;5.60;82.84;99112.25;5001971;28;19921;-88
2022/01/05 13:19:28;;;;;;;;;;;;;;;5.41;83.03;99102.38;4995135;28;20008;-89
2022/01/05 13:21:57;;;;;;;;;;;;;;;5.33;83.09;99088.63;4993721;28;19968;-90
2022/01/05 13:24:26;;;;;;;;;;;;;;;5.22;83.66;99094.22;4993962;28;19921;-89
2022/01/05 13:26:58;;;;;;;;;;;;;;;5.19;85.32;99098.72;5002622;28;19961;-89
2022/01/05 13:29:30;;;;;;;;;;;;;;;5.24;87.84;99102.91;5008164;28;20008;-88
2022/01/05 13:31:59;;;;;;;;;;;;;;;5.35;90.32;99102.56;5003923;28;20449;-91
2022/01/05 13:34:35;;;;;;;;;;;;;;;5.49;93.08;99111.75;5001967;28;19918;-92
2022/01/05 13:37:03;;;;;;;;;;;;;;;5.64;96.84;99112.09;5006544;28;19925;-91
2022/01/05 13:39:36;;;;;;;;;;;;;;;5.84;100.00;99118.50;4992510;28;19976;-89
2022/01/05 13:42:04;;;;;;;;;;;;;;;5.99;100.00;99117.97;4992466;28;19922;-89
2022/01/05 13:44:32;;;;;;;;;;;;;;;6.11;100.00;99111.44;4991518;28;19968;-91
2022/01/05 13:47:01;;;;;;;;;;;;;;;6.20;100.00;99112.88;4992766;28;19922;-89
2022/01/05 13:49:27;;;;;;;;;;;;;;;6.29;100.00;99109.91;4999723;28;19926;-89
2022/01/05 13:52:07;;;;;;;;;;;;;;;6.35;100.00;99107.06;5002186;28;20344;-89
2022/01/05 13:54:38;;;;;;;;;;;;;;;6.44;100.00;99110.28;5008527;28;19929;-91
2022/01/05 13:57:04;;;;;;;;;;;;;;;6.49;100.00;99122.38;4997548;28;19929;-92
2022/01/05 13:59:49;;;;;;;;;;;;;;;6.55;100.00;99118.63;4992554;28;19921;-92
2022/01/05 14:02:15;;;;;;;;;;;;;;;6.63;100.00;99124.47;5001527;28;19918;-92
2022/01/05 14:05:15;;;;;;;;;;;;;;;6.66;100.00;99129.63;4991484;28;19924;-93
2022/01/05 14:07:46;;;;;;;;;;;;;;;6.69;100.00;99142.66;4963987;28;20283;-89
2022/01/05 14:10:15;;;;;;;;;;;;;;;6.75;100.00;99138.09;4992795;28;19972;-92
2022/01/05 14:12:44;;;;;;;;;;;;;;;6.80;100.00;99137.00;4992784;28;20004;-89
2022/01/05 14:15:16;;;;;;;;;;;;;;;6.84;100.00;99133.31;5001371;28;19928;-90
2022/01/05 14:18:21;;;;;;;;;;;;;;;;;;;;;
2022/01/05 14:20:50;;;;;;;;;;;;;;;6.91;100.00;99140.09;4952463;28;19926;-89
2022/01/05 14:23:21;;;;;;;;;;;;;;;6.95;100.00;99143.47;4994050;28;19928;-91
2022/01/05 14:25:52;;;;;;;;;;;;;;;6.97;100.00;99144.25;4993316;28;19988;-89
2022/01/05 14:28:24;;;;;;;;;;;;;;;6.45;100.00;99151.47;5002139;28;19918;-91
2022/01/05 14:31:06;;;;;;;;;;;;;;;4.63;100.00;99158.16;5001208;28;19922;-93
2022/01/05 14:33:40;;;;;;;;;;;;;;;3.76;100.00;99158.72;5007217;28;19926;-91
2022/01/05 14:36:37;;;;;;;;;;;;;;;;;;;;;
2022/01/05 14:39:11;;;;;;;;;;;;;;;3.21;94.79;99167.00;4995035;28;20397;-92
2022/01/05 14:41:43;;;;;;;;;;;;;;;3.03;93.32;99168.28;4993459;28;19991;-91
2022/01/05 14:44:22;;;;;;;;;;;;;;;2.80;92.54;99167.91;4990333;28;20432;-93
2022/01/05 14:46:56;;;;;;;;;;;;;;;2.73;91.92;99164.56;4987950;28;19957;-92
2022/01/05 14:49:37;;;;;;;;;;;;;;;2.57;91.27;99173.59;4973231;28;19921;-87
2022/01/05 14:52:19;;;;;;;;;;;;;;;;;;;;;
2022/01/05 14:55:22;;;;;;;;;;;;;;;2.27;89.92;99175.94;4987108;28;19921;-91
2022/01/05 14:57:52;;;;;;;;;;;;;;;2.09;89.07;99182.34;4973124;28;19932;-88
2022/01/05 15:00:18;;;;;;;;;;;;;;;2.00;88.55;99188.63;4973223;28;20852;-88
2022/01/05 15:02:43;;;;;;;;;;;;;;;1.91;87.83;99189.63;4973629;28;19929;-87
2022/01/05 15:05:10;;;;;;;;;;;;;;;1.79;87.40;99189.84;4974824;28;19921;-89
2022/01/05 15:07:38;;;;;;;;;;;;;;;1.68;87.13;99186.56;4973612;28;19965;-89
2022/01/05 15:10:07;;;;;;;;;;;;;;;1.50;86.91;99190.28;4973307;28;20031;-91
2022/01/05 15:12:39;;;;;;;;;;;;;;;1.45;86.26;99198.19;4992441;28;20312;-89
2022/01/05 15:15:05;;;;;;;;;;;;;;;1.32;86.09;99191.44;4991281;28;19921;-90
2022/01/05 15:17:33;;;;;;;;;;;;;;;1.23;85.87;99190.69;5000599;28;20344;-89
2022/01/05 15:20:03;;;;;;;;;;;;;;;1.13;85.80;99196.91;4989483;28;20004;-88
2022/01/05 15:22:31;;;;;;;;;;;;;;;1.04;85.66;99194.47;4989772;28;19926;-88
2022/01/05 15:24:56;;;;;;;;;;;;;;;0.96;85.38;99207.59;4969841;28;19922;-87
2022/01/05 15:27:21;;;;;;;;;;;;;;;0.95;85.57;99203.25;4953983;28;20576;-88
2022/01/05 15:29:50;;;;;;;;;;;;;;;0.84;85.19;99198.16;4954066;28;20012;-89
2022/01/05 15:32:22;;;;;;;;;;;;;;;1.13;87.09;99198.66;4953815;28;19922;-89
2022/01/05 15:34:55;;;;;;;;;;;;;;;1.46;90.58;99213.00;4969716;28;19928;-90
2022/01/05 15:37:20;;;;;;;;;;;;;;;1.73;95.27;99210.84;4954730;28;19926;-89
2022/01/05 15:39:45;;;;;;;;;;;;;;;1.86;97.94;99203.66;4969873;28;20273;-89
2022/01/05 15:42:13;;;;;;;;;;;;;;;2.00;99.80;99212.97;4952218;28;19967;-90
2022/01/05 15:44:39;;;;;;;;;;;;;;;2.07;100.00;99220.72;4953364;28;19922;-89
2022/01/05 15:47:06;;;;;;;;;;;;;;;2.14;100.00;99209.28;4954752;28;19918;-88
2022/01/05 15:49:39;;;;;;;;;;;;;;;2.20;100.00;99210.91;4962242;28;19968;-89
2022/01/05 15:52:04;;;;;;;;;;;;;;;2.18;100.00;99214.41;4971620;28;19957;-90
2022/01/05 15:54:34;;;;;;;;;;;;;;;2.25;100.00;99206.47;4972627;28;22330;-90
2022/01/05 15:57:26;;;;;;;;;;;;;;;2.28;100.00;99202.06;4969498;28;19945;-89
2022/01/05 16:02:35;;;;;;;;;;;;;;;2.30;100.00;99202.03;4973292;28;19941;-88
2022/01/05 16:05:03;;;;;;;;;;;;;;;2.35;100.00;99205.41;4973296;28;20361;-89
2022/01/05 16:07:30;;;;;;;;;;;;;;;2.40;100.00;99203.56;4971655;28;20396;-89
2022/01/05 16:09:56;;;;;;;;;;;;;;;2.38;100.00;99215.81;4970954;28;19922;-87
2022/01/05 16:12:21;;;;;;;;;;;;;;;2.41;100.00;99226.22;4973036;28;20332;-90
2022/01/05 16:14:49;;;;;;;;;;;;;;;2.40;100.00;99234.94;4969416;28;19923;-89
2022/01/05 16:17:14;;;;;;;;;;;;;;;2.42;100.00;99237.53;4970999;28;19922;-89
2022/01/05 16:19:41;;;;;;;;;;;;;;;2.45;99.79;99237.47;4969159;28;19922;-89
2022/01/05 16:22:06;;;;;;;;;;;;;;;2.43;98.75;99239.28;4968286;28;19956;-88
2022/01/05 16:24:31;;;;;;;;;;;;;;;2.50;97.60;99236.50;4978394;28;19957;-89
2022/01/05 16:26:57;;;;;;;;;;;;;;;2.51;96.51;99242.59;4980318;28;19972;-90
2022/01/05 16:29:23;;;;;;;;;;;;;;;2.49;95.53;99250.47;4990617;28;19926;-90
2022/01/05 16:31:48;;;;;;;;;;;;;;;2.49;94.30;99254.81;4995570;28;20456;-90
2022/01/05 16:34:14;;;;;;;;;;;;;;;2.57;93.15;99259.91;4990323;28;20012;-88
2022/01/05 16:36:42;;;;;;;;;;;;;;;2.53;91.88;99273.03;5003657;28;19928;-89
2022/01/05 16:39:07;;;;;;;;;;;;;;;2.57;90.99;99259.91;4994862;28;19976;-89
2022/01/05 16:41:32;;;;;;;;;;;;;;;2.59;89.97;99261.63;4993290;28;19925;-88
2022/01/05 16:43:57;;;;;;;;;;;;;;;2.58;89.42;99265.13;4993402;28;20391;-89
2022/01/05 16:46:23;;;;;;;;;;;;;;;2.60;88.63;99262.47;4992890;28;20316;-88
2022/01/05 16:48:50;;;;;;;;;;;;;;;2.62;88.04;99269.41;5001192;28;19929;-89
2022/01/05 16:51:16;;;;;;;;;;;;;;;2.65;87.38;99256.28;5003064;28;19926;-89
2022/01/05 16:53:41;;;;;;;;;;;;;;;2.66;87.01;99260.59;5004261;28;19918;-89
2022/01/05 16:56:07;;;;;;;;;;;;;;;2.64;86.60;99264.16;5001894;28;20361;-89
2022/01/05 17:01:16;;;;;;;;;;;;;;;2.60;85.62;99273.81;4995295;28;19928;-88
2022/01/05 17:03:41;;;;;;;;;;;;;;;2.64;85.42;99275.47;4994691;28;20387;-89
2022/01/05 17:06:10;;;;;;;;;;;;;;;2.63;85.25;99279.00;4999438;28;20428;-89
2022/01/05 17:08:35;;;;;;;;;;;;;;;2.64;85.25;99272.84;4994687;28;19918;-89
2022/01/05 17:11:00;;;;;;;;;;;;;;;2.60;84.73;99276.44;4992056;28;19922;-89
2022/01/05 17:13:26;;;;;;;;;;;;;;;2.63;84.48;99279.00;4994270;28;19917;-92
2022/01/05 17:15:52;;;;;;;;;;;;;;;2.65;84.33;99277.22;5003925;28;19918;-89
2022/01/05 17:18:18;;;;;;;;;;;;;;;2.62;84.09;99279.03;4995754;28;19922;-90
2022/01/05 17:20:43;;;;;;;;;;;;;;;2.67;83.99;99279.81;4994335;28;20007;-90
2022/01/05 17:23:09;;;;;;;;;;;;;;;2.62;83.65;99285.13;5002015;28;20388;-90
2022/01/05 17:25:35;;;;;;;;;;;;;;;2.66;83.70;99278.06;4993360;28;19924;-89
2022/01/05 17:28:00;;;;;;;;;;;;;;;2.64;83.46;99277.25;4999009;28;19922;-89
2022/01/05 17:30:26;;;;;;;;;;;;;;;2.69;83.44;99276.25;4999197;28;19921;-89
2022/01/05 17:32:51;;;;;;;;;;;;;;;2.66;83.25;99273.69;4993430;28;19922;-90
2022/01/05 17:35:16;;;;;;;;;;;;;;;2.64;83.18;99277.25;5001336;28;19926;-90
2022/01/05 17:37:43;;;;;;;;;;;;;;;2.65;83.06;99276.31;5001095;28;19945;-89
2022/01/05 17:40:24;;;;;;;;;;;;;;;2.68;82.80;99274.53;4988426;28;19926;-89
2022/01/05 17:42:49;;;;;;;;;;;;;;;2.67;82.49;99279.81;4998292;28;19925;-89
2022/01/05 17:45:14;;;;;;;;;;;;;;;2.71;82.36;99266.63;4991926;28;20435;-89
2022/01/05 17:47:41;;;;;;;;;;;;;;;2.65;82.04;99278.94;4992535;28;20578;-89
2022/01/05 17:50:08;;;;;;;;;;;;;;;2.66;81.89;99281.53;5001085;28;20012;-88
2022/01/05 17:52:34;;;;;;;;;;;;;;;2.72;81.76;99284.03;4983385;28;20032;-89
2022/01/05 17:55:00;;;;;;;;;;;;;;;2.73;81.80;99295.38;4981482;28;19926;-89
2022/01/05 17:57:26;;;;;;;;;;;;;;;2.76;81.60;99297.06;4982495;28;19917;-88
2022/01/05 17:59:51;;;;;;;;;;;;;;;2.72;81.58;99309.34;4973968;28;19921;-88
2022/01/05 18:02:16;;;;;;;;;;;;;;;2.67;81.43;99306.81;4982727;28;19972;-88
2022/01/05 18:04:42;;;;;;;;;;;;;;;2.73;81.41;99311.94;4980998;28;19930;-88
2022/01/05 18:07:07;;;;;;;;;;;;;;;2.73;81.33;99317.16;4980884;28;19977;-88
2022/01/05 18:09:33;;;;;;;;;;;;;;;2.77;81.29;99311.88;4982729;28;19922;-88
2022/01/05 18:11:58;;;;;;;;;;;;;;;2.71;81.14;99318.97;4981108;28;19917;-89
2022/01/05 18:14:24;;;;;;;;;;;;;;;2.75;80.82;99321.53;4966463;28;19925;-89
2022/01/05 18:16:51;;;;;;;;;;;;;;;2.71;80.75;99328.53;4986327;28;19918;-88
2022/01/05 18:19:25;;;;;;;;;;;;;;;2.71;80.73;99324.19;5001086;28;19926;-88
2022/01/05 18:21:51;;;;;;;;;;;;;;;2.73;80.47;99324.16;4993630;28;19972;-88
2022/01/05 18:24:17;;;;;;;;;;;;;;;2.73;80.46;99322.41;5001846;28;19957;-89
2022/01/05 18:26:42;;;;;;;;;;;;;;;2.72;80.50;99333.75;4993088;28;19930;-87
2022/01/05 18:29:08;;;;;;;;;;;;;;;2.69;80.11;99333.81;4992884;28;19918;-89
2022/01/05 18:31:34;;;;;;;;;;;;;;;2.74;80.06;99341.56;4992893;28;19928;-87
2022/01/05 18:34:00;;;;;;;;;;;;;;;2.75;79.73;99345.06;5005435;28;20046;-86
2022/01/05 18:36:27;;;;;;;;;;;;;;;2.75;79.39;99358.16;4992767;28;19934;-87
2022/01/05 18:38:54;;;;;;;;;;;;;;;2.74;79.55;99352.03;4993083;28;19930;-88
2022/01/05 18:41:19;;;;;;;;;;;;;;;2.70;79.40;99353.00;4990393;28;20268;-87
2022/01/05 18:43:47;;;;;;;;;;;;;;;2.70;79.29;99353.84;4993914;28;19929;-87
2022/01/05 18:46:16;;;;;;;;;;;;;;;2.74;79.39;99359.88;4993289;28;19918;-88
2022/01/05 18:48:42;;;;;;;;;;;;;;;2.77;79.33;99356.38;4999698;28;19962;-87
2022/01/05 18:51:08;;;;;;;;;;;;;;;2.76;79.49;99357.25;4992301;28;19929;-87
2022/01/05 18:53:33;;;;;;;;;;;;;;;2.75;79.29;99360.78;4992382;28;20495;-89
2022/01/05 18:55:58;;;;;;;;;;;;;;;2.81;79.37;99363.25;4999453;28;20357;-89
2022/01/05 18:58:24;;;;;;;;;;;;;;;2.79;79.19;99357.19;5000068;28;19929;-87
2022/01/05 19:00:49;;;;;;;;;;;;;;;3.89;81.93;99361.09;4992390;28;20001;-79
2022/01/05 19:03:15;;;;;;;;;;;;;;;3.41;81.41;99365.59;4994191;28;19918;-89
2022/01/05 19:05:40;;;;;;;;;;;;;;;3.11;81.81;99363.59;4993352;28;20321;-90
2022/01/05 19:08:05;;;;;;;;;;;;;;;3.03;81.52;99362.00;4992123;28;20009;-88
2022/01/05 19:10:31;;;;;;;;;;;;;;;2.99;81.16;99356.84;4991200;28;19938;-89
2022/01/05 19:12:56;;;;;;;;;;;;;;;2.97;80.95;99356.88;5001172;28;20365;-89
2022/01/05 19:15:21;;;;;;;;;;;;;;;2.93;80.65;99352.56;4991909;28;19976;-89
2022/01/05 19:17:49;;;;;;;;;;;;;;;2.94;80.51;99351.69;4991984;28;20476;-89
2022/01/05 19:20:15;;;;;;;;;;;;;;;2.94;80.19;99351.69;4992120;28;19922;-89
2022/01/05 19:22:40;;;;;;;;;;;;;;;2.94;79.88;99351.69;4999373;28;19922;-89
2022/01/05 19:25:06;;;;;;;;;;;;;;;2.94;79.62;99354.31;4991072;28;19918;-89
2022/01/05 19:27:31;;;;;;;;;;;;;;;2.91;79.53;99355.22;4999995;28;20294;-89
2022/01/05 19:29:57;;;;;;;;;;;;;;;2.91;79.43;99355.22;4991979;28;19929;-90
2022/01/05 19:32:22;;;;;;;;;;;;;;;2.89;79.20;99364.84;5008190;28;19957;-90
2022/01/05 19:34:48;;;;;;;;;;;;;;;2.89;78.94;99369.22;4993240;28;19928;-89